• Join FlightAware (Why Join?)
  • Login
  • US Flag 
 
06:45AM EST


 

Airport Tracker/Info


-or-


 

Live Flight TrackerFlight Track Log ✈ EGF4269 ✈ 26-Apr-2013 ✈ KORD - KAZO

Flight Track Log - Related Links

Times and Time Zones

All times are in EDT time to prevent confusion due to time zone crossing. See the EGF4269 flight status page for this flight to view local times or setup timezone preferences in your user account.

Time Position Orientation Groundspeed Altitude Reporting Facility
EDT Latitude Longitude Course Direction KTS MPH feet Rate Location/Type
10:39PM 41.9333 -87.8833 77° East 198 228 2,500  Level Chicago TRACON
10:40PM 41.9667 -87.8000 62° Northeast 265 305 4,600 1,440 Climbing Chicago TRACON
10:41PM 42.0361 -87.5197 83° East  Level FlightAware Approximate
10:41PM 42.0167 -87.7000 56° Northeast 292 336 5,600  Level Chicago TRACON
10:42PM 42.0481 -87.3876 83° East  Level FlightAware Approximate
10:43PM 42.0669 -87.2571 78° East  Level FlightAware Approximate
10:43PM 42.0422 -87.4983 80° East 287 330 10,800  Level Chicago Center
10:44PM 42.0872 -87.1268 77° East  Level FlightAware Approximate
10:44PM 42.0597 -87.3911 78° East 293 337 12,800  Level Chicago Center
10:45PM 42.0769 -87.2819 78° East 297 342 14,700 1,560 Climbing Chicago Center
10:46PM 42.0956 -87.1647 78° East 317 365 16,100 1,140 Climbing Chicago Center
10:47PM 42.1156 -87.0078 80° East 355 409 17,100 480 Climbing Chicago Center
10:48PM 42.1200 -86.8592 88° East 397 457 17,100  Level Chicago Center
10:49PM 42.1253 -86.7014 87° East 419 482 17,100 -720 Level Chicago Center
10:50PM 42.1308 -86.5547 87° East 420 483 15,700 -1,740 Descending Chicago Center
10:51PM 42.1358 -86.4108 87° East 393 452 13,600 -1,980 Descending Chicago Center
10:52PM 42.1397 -86.2714 88° East 376 433 11,700 -1,500 Descending Chicago Center
10:53PM 42.1458 -86.1433 86° East 350 403 10,600 -1,260 Descending Chicago Center
10:55PM 42.1636 -86.0422 77° East 295 339 9,200 -1,500 Descending Chicago Center
10:56PM 42.1989 -85.9428 64° Northeast 293 337 7,600 -1,800 Descending Chicago Center
10:57PM 42.2403 -85.8286 64° Northeast 284 327 5,600 -1,920 Descending Chicago Center
10:58PM 42.2750 -85.7372 63° Northeast 278 320 3,800 -1,440 Descending Chicago Center
10:59PM 42.3042 -85.6564 64° Northeast 271 312 2,700 -720 Descending Chicago Center
11:00PM 42.3142 -85.5878 79° East 205 236 2,400 -480 Descending Chicago Center
11:01PM 42.2853 -85.5569 142° Southeast 143 165 1,800 -600 Descending Chicago Center
11:02PM 42.2467 -85.5517 174° South 125 144 1,200 -600 Descending Chicago Center